Time;durP1;ratioP1;P1;durP2;ratioP2;P2;SDS_P1;SDS_P2;PMS_P1;PMS_P2;Temp;Humidity;BMP_temperature;BMP_pressure;BME280_temperature;BME280_humidity;BME280_pressure;Samples;Min_cycle;Max_cycle;Signal;HPM_P1;HPM_P2
2021/08/12 00:00:55;;;;;;;;;;;14.50;99.90;;;;;;5061399;28;20090;-66
2021/08/12 00:03:21;;;;;;;10.10;6.32;;;14.50;99.90;;;;;;5059548;28;19921;-66
2021/08/12 00:05:46;;;;;;;;;;;14.50;99.90;;;;;;5061451;28;20045;-66
2021/08/12 00:08:12;;;;;;;10.52;6.97;;;14.40;99.90;;;;;;5061622;28;19927;-66
2021/08/12 00:10:38;;;;;;;;;;;14.40;99.90;;;;;;5061088;28;20115;-66
2021/08/12 00:13:03;;;;;;;10.73;6.20;;;14.40;99.90;;;;;;5058649;28;19920;-66
2021/08/12 00:15:29;;;;;;;;;;;14.40;99.90;;;;;;5061040;28;20033;-66
2021/08/12 00:17:54;;;;;;;10.55;6.10;;;14.40;99.90;;;;;;5051657;28;20106;-66
2021/08/12 00:20:20;;;;;;;;;;;14.30;99.90;;;;;;5048400;28;20123;-66
2021/08/12 00:22:46;;;;;;;14.30;7.53;;;14.30;99.90;;;;;;5048124;28;19976;-66
2021/08/12 00:25:11;;;;;;;;;;;14.30;99.90;;;;;;5048538;28;20033;-66
2021/08/12 00:27:37;;;;;;;12.18;7.43;;;14.30;99.90;;;;;;5047890;28;19985;-65
2021/08/12 00:30:03;;;;;;;;;;;14.30;99.90;;;;;;5048853;28;20595;-66
2021/08/12 00:32:29;;;;;;;9.57;5.68;;;14.30;99.90;;;;;;5065775;28;19916;-66
2021/08/12 00:34:54;;;;;;;;;;;14.30;99.90;;;;;;5068845;28;20070;-66
2021/08/12 00:37:20;;;;;;;12.25;6.30;;;14.30;99.90;;;;;;5067621;28;19982;-66
2021/08/12 00:39:45;;;;;;;;;;;14.20;99.90;;;;;;5069171;28;20044;-66
2021/08/12 00:42:11;;;;;;;10.35;6.00;;;14.20;99.90;;;;;;5058538;28;19917;-66
2021/08/12 00:44:36;;;;;;;;;;;14.20;99.90;;;;;;5061958;28;20040;-66
2021/08/12 00:47:03;;;;;;;10.27;6.38;;;14.20;99.90;;;;;;5068425;28;19920;-66
2021/08/12 00:49:28;;;;;;;10.98;6.93;;;14.20;99.90;;;;;;5068206;28;20044;-66
2021/08/12 00:51:54;;;;;;;;;;;14.10;99.90;;;;;;5069007;28;20037;-66
2021/08/12 00:54:20;;;;;;;12.15;7.22;;;14.10;99.90;;;;;;5068030;28;19917;-66
2021/08/12 00:56:46;;;;;;;;;;;14.10;99.90;;;;;;5068366;28;20052;-67
2021/08/12 00:59:12;;;;;;;16.23;6.45;;;14.10;99.90;;;;;;5068014;28;20091;-67
2021/08/12 01:01:38;;;;;;;;;;;14.10;99.90;;;;;;5066915;28;20139;-67
2021/08/12 01:04:04;;;;;;;11.55;6.00;;;14.00;99.90;;;;;;5068285;28;19942;-67
2021/08/12 01:06:39;;;;;;;;;;;14.00;99.90;;;;;;5066983;28;20044;-67
2021/08/12 01:09:14;;;;;;;8.85;6.22;;;14.10;99.90;;;;;;5067706;28;19964;-67
2021/08/12 01:11:52;;;;;;;11.38;6.35;;;14.00;99.90;;;;;;5063779;28;20041;-66
2021/08/12 01:14:36;;;;;;;13.05;7.15;;;14.00;99.90;;;;;;5066910;28;20974;-67
2021/08/12 01:17:06;;;;;;;15.15;6.80;;;13.90;99.90;;;;;;5066586;28;20124;-67
2021/08/12 01:20:05;;;;;;;12.23;6.32;;;13.90;99.90;;;;;;5066347;28;20071;-66
2021/08/12 01:22:36;;;;;;;10.98;6.72;;;14.00;99.90;;;;;;5067134;28;20466;-67
2021/08/12 01:25:07;;;;;;;12.10;8.15;;;14.00;99.90;;;;;;5067178;28;20043;-67
2021/08/12 01:27:37;;;;;;;9.68;6.00;;;13.90;99.90;;;;;;5067123;28;20091;-67
2021/08/12 01:30:07;;;;;;;12.23;6.40;;;13.80;99.90;;;;;;5065230;28;20067;-66
2021/08/12 01:33:09;;;;;;;9.68;6.15;;;13.80;99.90;;;;;;5066327;28;20131;-67
2021/08/12 01:35:38;;;;;;;11.85;6.47;;;13.80;99.90;;;;;;5063724;28;20049;-67
2021/08/12 01:38:21;;;;;;;7.90;5.65;;;13.80;99.90;;;;;;5046517;28;20793;-67
2021/08/12 01:40:49;;;;;;;10.98;6.30;;;13.80;99.90;;;;;;5046657;28;20059;-67
2021/08/12 01:43:20;;;;;;;12.52;6.05;;;13.80;99.90;;;;;;5065346;28;20051;-67
2021/08/12 01:45:52;;;;;;;13.02;6.15;;;13.70;99.90;;;;;;5065754;28;20102;-67
2021/08/12 01:48:20;;;;;;;9.95;6.28;;;13.70;99.90;;;;;;5065695;28;20058;-67
2021/08/12 01:50:47;;;;;;;16.08;5.75;;;13.70;99.90;;;;;;5064740;28;20068;-67
2021/08/12 01:53:13;;;;;;;9.98;5.70;;;13.80;99.90;;;;;;5067066;28;20036;-67
2021/08/12 01:55:39;;;;;;;8.00;5.38;;;13.70;99.90;;;;;;5065987;28;20085;-67
2021/08/12 01:58:05;;;;;;;;;;;13.70;99.90;;;;;;5066810;28;20040;-67
2021/08/12 02:00:32;;;;;;;10.48;5.47;;;13.60;99.90;;;;;;5066029;28;19939;-67
2021/08/12 02:02:59;;;;;;;13.05;5.60;;;13.70;99.90;;;;;;5066309;28;20118;-67
2021/08/12 02:05:26;;;;;;;10.23;5.55;;;13.70;99.90;;;;;;5065331;28;20044;-67
2021/08/12 02:07:52;;;;;;;11.10;5.45;;;13.70;99.90;;;;;;5064570;28;20382;-67
2021/08/12 02:10:17;;;;;;;;;;;13.60;99.90;;;;;;5065965;28;20040;-67
2021/08/12 02:12:44;;;;;;;10.50;5.55;;;13.60;99.90;;;;;;5061402;28;19944;-67
2021/08/12 02:15:11;;;;;;;10.80;5.55;;;13.60;99.90;;;;;;5065067;28;20044;-67
2021/08/12 02:17:37;;;;;;;8.93;5.15;;;13.60;99.90;;;;;;5066225;28;20044;-67
2021/08/12 02:20:06;;;;;;;;;;;13.60;99.90;;;;;;5065328;28;20068;-67
2021/08/12 02:22:46;;;;;;;8.85;5.35;;;13.70;99.90;;;;;;5059296;28;19942;-67
2021/08/12 02:25:18;;;;;;;7.47;5.13;;;13.70;99.90;;;;;;5065958;28;20040;-67
2021/08/12 02:27:45;;;;;;;9.45;4.65;;;13.70;99.90;;;;;;5065902;28;20672;-67
2021/08/12 02:30:12;;;;;;;9.68;4.90;;;13.70;99.90;;;;;;5066244;28;20110;-67
2021/08/12 02:32:40;;;;;;;11.95;5.18;;;13.70;99.90;;;;;;5066696;28;20048;-67
2021/08/12 02:35:09;;;;;;;10.50;4.60;;;13.70;99.90;;;;;;5066539;28;20131;-67
2021/08/12 02:37:36;;;;;;;9.85;5.55;;;13.70;99.90;;;;;;5067034;28;20044;-67
2021/08/12 02:40:04;;;;;;;16.15;9.73;;;13.80;99.90;;;;;;5066045;28;20075;-67
2021/08/12 02:42:30;;;;;;;102.35;61.60;;;13.70;99.90;;;;;;5067390;28;20044;-67
2021/08/12 02:44:58;;;;;;;30.08;17.38;;;13.70;99.90;;;;;;5067077;28;20059;-67
2021/08/12 02:47:24;;;;;;;19.92;11.80;;;13.70;99.90;;;;;;5067667;28;20583;-67
2021/08/12 02:49:53;;;;;;;13.20;6.53;;;13.70;99.90;;;;;;5066771;28;20036;-67
2021/08/12 02:52:19;;;;;;;30.27;15.45;;;13.60;99.90;;;;;;5063343;28;20032;-67
2021/08/12 02:54:48;;;;;;;44.50;24.48;;;13.60;99.90;;;;;;5067140;28;20045;-67
2021/08/12 02:57:13;;;;;;;15.48;9.20;;;13.60;99.90;;;;;;5065498;28;20412;-67
2021/08/12 02:59:41;;;;;;;;;;;13.60;99.90;;;;;;5068237;28;20040;-67
2021/08/12 03:02:08;;;;;;;23.17;11.43;;;13.60;99.90;;;;;;5066073;28;19917;-67
2021/08/12 03:04:34;;;;;;;11.75;6.90;;;13.60;99.90;;;;;;5066118;28;20488;-67
2021/08/12 03:07:00;;;;;;;;;;;13.60;99.90;;;;;;5065347;28;20054;-67
2021/08/12 03:09:27;;;;;;;10.53;6.30;;;13.60;99.90;;;;;;5064864;28;19924;-67
2021/08/12 03:11:55;;;;;;;9.73;5.88;;;13.60;99.90;;;;;;5061448;28;20083;-67
2021/08/12 03:14:22;;;;;;;12.57;5.40;;;13.40;99.90;;;;;;5065804;28;20045;-67
2021/08/12 03:16:48;;;;;;;14.05;5.03;;;13.40;99.90;;;;;;5065250;28;20045;-67
2021/08/12 03:19:17;;;;;;;9.60;4.80;;;13.40;99.90;;;;;;5063654;28;20489;-66
2021/08/12 03:22:03;;;;;;;12.25;4.53;;;13.40;99.90;;;;;;5065455;28;20032;-66
2021/08/12 03:24:32;;;;;;;8.10;4.53;;;13.40;99.90;;;;;;5065978;28;20123;-67
2021/08/12 03:26:57;;;;;;;9.55;4.88;;;13.50;99.90;;;;;;5064595;28;20047;-67
2021/08/12 03:29:23;;;;;;;;;;;13.40;99.90;;;;;;5066193;28;20044;-67
2021/08/12 03:31:49;;;;;;;9.05;4.88;;;13.40;99.90;;;;;;5064760;28;19920;-67
2021/08/12 03:34:15;;;;;;;;;;;13.50;99.90;;;;;;5065818;28;20086;-67
2021/08/12 03:36:40;;;;;;;40.50;21.08;;;13.40;99.90;;;;;;5066195;28;19920;-67
2021/08/12 03:39:06;;;;;;;;;;;13.40;99.90;;;;;;5066487;28;20148;-67
2021/08/12 03:41:31;;;;;;;10.15;5.97;;;13.40;99.90;;;;;;5062277;28;20281;-67
2021/08/12 03:43:57;;;;;;;;;;;13.30;99.90;;;;;;5066582;28;20047;-67
2021/08/12 03:46:22;;;;;;;10.07;5.13;;;13.40;99.90;;;;;;5064151;28;19924;-67
2021/08/12 03:48:48;;;;;;;;;;;13.40;99.90;;;;;;5065968;28;20066;-67
2021/08/12 03:51:14;;;;;;;8.55;4.22;;;13.40;99.90;;;;;;5066418;28;19943;-67
2021/08/12 03:53:39;;;;;;;;;;;13.30;99.90;;;;;;5069344;28;20040;-67
2021/08/12 03:56:05;;;;;;;6.43;3.72;;;13.40;99.90;;;;;;5069364;28;20306;-67
2021/08/12 03:58:32;;;;;;;;;;;13.30;99.90;;;;;;5070570;28;20048;-67
2021/08/12 04:00:58;;;;;;;12.55;4.88;;;13.30;99.90;;;;;;5071875;28;20575;-67
2021/08/12 04:03:25;;;;;;;8.75;4.30;;;13.30;99.90;;;;;;5072211;28;20044;-67
2021/08/12 04:05:50;;;;;;;21.35;13.73;;;13.30;99.90;;;;;;5072488;28;20036;-67
2021/08/12 04:08:16;;;;;;;;;;;13.30;99.90;;;;;;5066398;23;20052;-67
2021/08/12 04:10:42;;;;;;;25.02;11.95;;;13.30;99.90;;;;;;5025496;28;19925;-66
2021/08/12 04:13:08;;;;;;;;;;;13.40;99.90;;;;;;5019685;28;20052;-67
2021/08/12 04:15:33;;;;;;;9.88;5.82;;;13.40;99.90;;;;;;5011348;28;19924;-67
2021/08/12 04:17:59;;;;;;;;;;;13.40;99.90;;;;;;5012680;28;20112;-67
2021/08/12 04:20:25;;;;;;;8.07;4.72;;;13.40;99.90;;;;;;5010469;28;19928;-67
2021/08/12 04:22:50;;;;;;;;;;;13.40;99.90;;;;;;5011757;28;20068;-67
2021/08/12 04:25:16;;;;;;;8.95;3.72;;;13.40;99.90;;;;;;4992139;28;19917;-67
2021/08/12 04:27:42;;;;;;;;;;;13.50;99.90;;;;;;5005831;28;20569;-67
2021/08/12 04:30:08;;;;;;;8.80;3.90;;;13.50;99.90;;;;;;5008778;28;19921;-67
2021/08/12 04:32:36;;;;;;;8.07;4.50;;;13.50;99.90;;;;;;5008807;28;20046;-67
2021/08/12 04:35:05;;;;;;;7.10;4.00;;;13.60;99.90;;;;;;5008493;28;20045;-66
2021/08/12 04:37:42;;;;;;;7.30;3.60;;;13.60;99.90;;;;;;5007346;28;20045;-67
2021/08/12 04:40:09;;;;;;;8.75;5.10;;;13.60;99.90;;;;;;5007068;28;20104;-67
2021/08/12 04:42:35;;;;;;;16.35;9.32;;;13.60;99.90;;;;;;5007007;28;20061;-66
2021/08/12 04:45:00;;;;;;;;;;;13.70;99.90;;;;;;5007285;28;20068;-65
2021/08/12 04:47:26;;;;;;;8.07;5.30;;;13.80;99.90;;;;;;5002751;28;19921;-67
2021/08/12 04:49:52;;;;;;;8.52;4.20;;;13.90;99.90;;;;;;4989793;28;20521;-67
2021/08/12 04:52:18;;;;;;;;;;;14.00;99.90;;;;;;5007050;28;20048;-66
2021/08/12 04:54:44;;;;;;;11.80;5.72;;;14.10;99.90;;;;;;4999431;28;20001;-65
2021/08/12 04:57:09;;;;;;;;;;;14.10;99.90;;;;;;5001595;28;20046;-66
2021/08/12 04:59:35;;;;;;;8.50;4.15;;;14.30;99.90;;;;;;5001036;28;19917;-67
2021/08/12 05:02:00;;;;;;;;;;;14.50;99.90;;;;;;5005815;28;20391;-66
2021/08/12 05:04:26;;;;;;;6.57;4.80;;;14.60;99.90;;;;;;5006200;28;19921;-66
2021/08/12 05:06:51;;;;;;;;;;;14.60;99.90;;;;;;5006411;28;20609;-66
2021/08/12 05:09:17;;;;;;;7.65;4.18;;;14.50;99.90;;;;;;5007087;28;19925;-66
2021/08/12 05:11:42;;;;;;;5.45;3.55;;;14.50;99.90;;;;;;5008029;28;20084;-67
2021/08/12 05:14:08;;;;;;;;;;;14.50;99.90;;;;;;5007915;28;20077;-66
2021/08/12 05:16:33;;;;;;;23.08;13.52;;;14.60;99.90;;;;;;5005943;28;19983;-66
2021/08/12 05:18:59;;;;;;;;;;;14.70;99.90;;;;;;5008039;28;20045;-66
2021/08/12 05:21:24;;;;;;;9.20;4.80;;;14.70;99.90;;;;;;5007444;28;19917;-67
2021/08/12 05:23:50;;;;;;;;;;;14.70;99.90;;;;;;5008838;28;20045;-66
2021/08/12 05:26:16;;;;;;;8.77;4.40;;;14.70;99.90;;;;;;5006515;28;19927;-66
2021/08/12 05:28:41;;;;;;;7.25;4.18;;;14.80;99.90;;;;;;5007378;28;20046;-66
2021/08/12 05:31:07;;;;;;;8.43;4.70;;;14.90;99.90;;;;;;5007216;28;20454;-66
2021/08/12 05:33:34;;;;;;;;;;;14.90;99.90;;;;;;4990534;28;20105;-66
2021/08/12 05:36:00;;;;;;;6.57;4.30;;;15.00;99.90;;;;;;5006657;28;19928;-66
2021/08/12 05:38:26;;;;;;;7.68;3.88;;;15.10;99.90;;;;;;5006240;28;20603;-66
2021/08/12 05:40:52;;;;;;;;;;;15.20;99.90;;;;;;5007767;28;20042;-67
2021/08/12 05:43:17;;;;;;;8.02;4.00;;;15.30;99.90;;;;;;5006148;28;20757;-66
2021/08/12 05:45:43;;;;;;;;;;;15.30;99.90;;;;;;5006702;28;20041;-66
2021/08/12 05:48:08;;;;;;;7.07;3.50;;;15.40;99.90;;;;;;5005210;28;20381;-66
2021/08/12 05:50:34;;;;;;;;;;;15.40;99.90;;;;;;5006637;28;20687;-66
2021/08/12 05:52:59;;;;;;;6.88;3.75;;;15.50;99.90;;;;;;5007383;28;19975;-66
2021/08/12 05:55:25;;;;;;;;;;;15.40;99.90;;;;;;5006323;28;20049;-66
2021/08/12 05:57:50;;;;;;;9.35;4.20;;;15.50;99.90;;;;;;4979361;28;19929;-66
2021/08/12 06:00:16;;;;;;;;;;;15.50;99.90;;;;;;4985076;28;20038;-66
2021/08/12 06:02:42;;;;;;;6.22;3.25;;;15.60;99.90;;;;;;4985846;28;20350;-66
2021/08/12 06:05:08;;;;;;;;;;;15.50;99.90;;;;;;4987125;28;20042;-66
2021/08/12 06:07:33;;;;;;;7.88;3.33;;;15.60;99.90;;;;;;4985943;28;19976;-67
2021/08/12 06:09:59;;;;;;;;;;;15.60;99.90;;;;;;4987397;28;20050;-67
2021/08/12 06:12:24;;;;;;;9.65;3.83;;;15.70;99.90;;;;;;5002383;28;19918;-66
2021/08/12 06:14:50;;;;;;;;;;;15.80;99.90;;;;;;5006667;28;20447;-67
2021/08/12 06:17:16;;;;;;;5.40;3.35;;;15.90;99.90;;;;;;5003668;28;19918;-66
2021/08/12 06:19:41;;;;;;;;;;;16.10;99.90;;;;;;5006216;28;20049;-66
2021/08/12 06:22:07;;;;;;;6.38;3.50;;;16.20;99.90;;;;;;5006733;28;19924;-66
2021/08/12 06:24:32;;;;;;;;;;;16.50;99.90;;;;;;5006422;28;20046;-66
2021/08/12 06:26:58;;;;;;;18.33;10.70;;;16.50;99.90;;;;;;4999140;28;19983;-66
2021/08/12 06:29:24;;;;;;;;;;;16.60;99.90;;;;;;5002772;28;20096;-65
2021/08/12 06:31:49;;;;;;;14.35;4.38;;;16.60;99.90;;;;;;4998588;28;19924;-67
2021/08/12 06:34:15;;;;;;;;;;;16.60;99.90;;;;;;5001263;28;20108;-66
2021/08/12 06:36:40;;;;;;;6.18;3.47;;;16.70;99.90;;;;;;4997356;28;19980;-67
2021/08/12 06:39:06;;;;;;;11.57;3.83;;;17.10;99.90;;;;;;5000268;28;20063;-66
2021/08/12 06:41:31;;;;;;;;;;;17.70;99.90;;;;;;5003854;28;20468;-67
2021/08/12 06:43:57;;;;;;;6.35;3.55;;;18.30;99.90;;;;;;5005507;28;20004;-67
2021/08/12 06:46:23;;;;;;;9.85;3.25;;;18.90;99.90;;;;;;5002855;28;20409;-67
2021/08/12 06:48:48;;;;;;;5.45;3.00;;;19.70;99.90;;;;;;5004510;28;20042;-67
2021/08/12 06:51:14;;;;;;;7.55;3.10;;;20.20;99.90;;;;;;5005587;28;20450;-68
2021/08/12 06:53:39;;;;;;;5.20;2.85;;;20.20;99.90;;;;;;5001764;28;20762;-67
2021/08/12 06:56:05;;;;;;;4.28;2.97;;;19.90;99.90;;;;;;4995308;28;20038;-67
2021/08/12 06:58:31;;;;;;;6.60;3.58;;;19.60;99.90;;;;;;4989335;28;20042;-67
2021/08/12 07:00:57;;;;;;;8.43;3.55;;;19.40;99.90;;;;;;5003857;28;20890;-67
2021/08/12 07:03:23;;;;;;;6.90;3.10;;;19.30;99.90;;;;;;4985315;28;20034;-66
2021/08/12 07:05:48;;;;;;;7.00;3.22;;;19.30;99.90;;;;;;4983374;28;20070;-66
2021/08/12 07:08:14;;;;;;;;;;;19.30;99.90;;;;;;4996128;28;20077;-67
2021/08/12 07:10:39;;;;;;;6.35;3.00;;;19.20;99.90;;;;;;5004667;28;19921;-66
2021/08/12 07:13:05;;;;;;;6.47;2.78;;;19.20;99.90;;;;;;4988238;28;20064;-67
2021/08/12 07:15:31;;;;;;;4.57;2.50;;;19.20;99.90;;;;;;5003603;28;20049;-67
2021/08/12 07:17:57;;;;;;;6.85;2.97;;;19.20;99.90;;;;;;5004194;28;20387;-66
2021/08/12 07:20:22;;;;;;;;;;;19.30;99.90;;;;;;5018884;23;20115;-66
2021/08/12 07:22:49;;;;;;;6.07;2.80;;;19.30;99.90;;;;;;5026152;28;19933;-66
2021/08/12 07:25:15;;;;;;;4.47;2.55;;;19.30;99.90;;;;;;5024407;28;20099;-66
2021/08/12 07:27:40;;;;;;;;;;;19.30;99.90;;;;;;5024743;28;20064;-66
2021/08/12 07:30:07;;;;;;;6.78;3.83;;;19.40;99.90;;;;;;5010263;28;19924;-66
2021/08/12 07:32:33;;;;;;;4.40;3.05;;;19.40;99.90;;;;;;5027812;28;20100;-66
2021/08/12 07:34:58;;;;;;;;;;;19.40;99.90;;;;;;5039391;28;20041;-66
2021/08/12 07:37:24;;;;;;;5.03;2.97;;;19.50;99.90;;;;;;5046359;28;19920;-66
2021/08/12 07:39:50;;;;;;;;;;;19.60;99.90;;;;;;5047123;28;20043;-66
2021/08/12 07:42:19;;;;;;;7.35;2.78;;;19.60;99.90;;;;;;5017691;28;19952;-66
2021/08/12 07:44:46;;;;;;;4.82;2.80;;;19.70;99.90;;;;;;5025272;28;20124;-66
2021/08/12 07:47:13;;;;;;;4.88;3.08;;;19.80;99.90;;;;;;5025019;28;20051;-66
2021/08/12 07:49:38;;;;;;;6.00;3.20;;;19.80;99.90;;;;;;5018670;28;20030;-66
2021/08/12 07:52:04;;;;;;;;;;;20.00;99.90;;;;;;5027104;28;20038;-66
2021/08/12 07:54:30;;;;;;;6.10;3.22;;;20.00;99.90;;;;;;5028427;28;19968;-66
2021/08/12 07:56:56;;;;;;;11.82;3.38;;;20.10;99.90;;;;;;5006820;28;20048;-66
2021/08/12 07:59:21;;;;;;;5.65;2.83;;;20.10;99.90;;;;;;5017655;28;20176;-66
2021/08/12 08:01:47;;;;;;;5.63;3.10;;;20.60;99.50;;;;;;5024016;28;20579;-67
2021/08/12 08:04:13;;;;;;;8.15;2.95;;;21.30;98.30;;;;;;5024416;28;20045;-67
2021/08/12 08:06:38;;;;;;;4.15;2.42;;;22.10;97.60;;;;;;5026535;28;20115;-67
2021/08/12 08:09:04;;;;;;;4.60;2.53;;;23.30;95.00;;;;;;5026656;28;20037;-65
2021/08/12 08:11:31;;;;;;;6.05;2.90;;;24.40;93.10;;;;;;5025861;28;20529;-67
2021/08/12 08:13:57;;;;;;;5.18;2.92;;;25.60;90.30;;;;;;5022944;28;20493;-67
2021/08/12 08:16:22;;;;;;;4.63;2.97;;;26.40;87.70;;;;;;4996055;28;20096;-67
2021/08/12 08:18:48;;;;;;;6.35;2.63;;;26.60;84.20;;;;;;5022501;28;20128;-68
2021/08/12 08:21:15;;;;;;;5.32;2.60;;;26.50;82.90;;;;;;5026319;28;20040;-67
2021/08/12 08:23:40;;;;;;;5.38;2.65;;;26.70;82.30;;;;;;5027080;28;20132;-68
2021/08/12 08:26:06;;;;;;;4.93;2.45;;;27.00;82.90;;;;;;5024245;28;20044;-70
2021/08/12 08:28:31;;;;;;;3.47;2.80;;;26.40;82.90;;;;;;5021824;28;20033;-67
2021/08/12 08:30:57;;;;;;;9.77;2.97;;;26.40;82.80;;;;;;5017396;28;20034;-68
2021/08/12 08:33:23;;;;;;;9.60;3.00;;;26.80;81.70;;;;;;5028331;28;20121;-67
2021/08/12 08:35:48;;;;;;;4.72;2.80;;;27.00;79.50;;;;;;5026515;28;20124;-67
2021/08/12 08:38:14;;;;;;;4.20;2.35;;;26.60;82.50;;;;;;5027368;28;20041;-68
2021/08/12 08:40:40;;;;;;;7.55;2.97;;;26.50;81.50;;;;;;5028427;28;20045;-68
2021/08/12 08:43:07;;;;;;;3.22;2.30;;;26.40;81.70;;;;;;5028643;28;20049;-68
2021/08/12 08:45:35;;;;;;;9.95;2.83;;;26.20;81.90;;;;;;5027189;28;20041;-68
2021/08/12 08:48:03;;;;;;;4.55;2.53;;;26.10;82.40;;;;;;5028470;28;20041;-68
2021/08/12 08:50:32;;;;;;;4.68;2.92;;;26.40;80.80;;;;;;5028251;28;20095;-67
2021/08/12 08:52:59;;;;;;;6.28;3.20;;;25.50;84.50;;;;;;5028356;28;20701;-67
2021/08/12 08:55:25;;;;;;;4.00;2.58;;;24.70;87.30;;;;;;5027845;28;20040;-67
2021/08/12 08:57:58;;;;;;;7.47;2.95;;;24.40;88.20;;;;;;5028376;28;20038;-68
2021/08/12 09:00:25;;;;;;;4.35;2.80;;;24.00;90.10;;;;;;5027698;28;20113;-67
2021/08/12 09:02:52;;;;;;;6.03;2.35;;;23.50;91.40;;;;;;5027375;28;20080;-67
2021/08/12 09:05:18;;;;;;;3.83;2.70;;;23.10;90.80;;;;;;5027603;28;20048;-68
2021/08/12 09:07:44;;;;;;;5.63;2.88;;;22.90;92.10;;;;;;5027937;28;20037;-68
2021/08/12 09:10:12;;;;;;;5.65;2.67;;;22.80;92.60;;;;;;5027763;28;20045;-67
2021/08/12 09:12:40;;;;;;;5.03;3.00;;;22.90;92.20;;;;;;5028349;28;20044;-67
2021/08/12 09:15:12;;;;;;;3.70;2.42;;;23.00;92.40;;;;;;5027365;28;20045;-67
2021/08/12 09:17:38;;;;;;;2.95;2.40;;;23.00;92.10;;;;;;5009103;28;20128;-67
2021/08/12 09:20:10;;;;;;;4.80;2.67;;;23.20;91.30;;;;;;5027811;28;20128;-67
2021/08/12 09:22:56;;;;;;;6.90;2.97;;;23.20;91.70;;;;;;5027279;28;20534;-67
2021/08/12 09:25:45;;;;;;;4.93;2.88;;;23.20;92.20;;;;;;5027468;28;20052;-67
2021/08/12 09:28:12;;;;;;;4.07;2.88;;;23.30;92.30;;;;;;5027130;28;20401;-67
2021/08/12 09:30:38;;;;;;;5.90;2.55;;;23.20;92.40;;;;;;5027362;28;20044;-67
2021/08/12 09:33:03;;;;;;;3.60;2.40;;;23.30;92.40;;;;;;5027405;28;20069;-67
2021/08/12 09:35:29;;;;;;;4.65;2.90;;;23.20;93.10;;;;;;5027453;28;20045;-67
2021/08/12 09:38:11;;;;;;;5.65;2.67;;;23.20;93.10;;;;;;5027692;28;20047;-67
2021/08/12 09:40:37;;;;;;;6.45;2.80;;;23.30;94.00;;;;;;5027975;28;20045;-67
2021/08/12 09:43:07;;;;;;;6.30;2.20;;;23.20;92.90;;;;;;5027239;28;20063;-67
2021/08/12 09:45:34;;;;;;;5.97;2.55;;;23.20;94.20;;;;;;5026617;28;20033;-68
2021/08/12 09:48:18;;;;;;;4.22;2.78;;;23.10;94.70;;;;;;5027415;28;20056;-67
2021/08/12 09:51:09;;;;;;;3.83;2.53;;;23.10;94.70;;;;;;5025812;28;20048;-68
2021/08/12 09:53:36;;;;;;;4.65;2.78;;;23.10;93.90;;;;;;5027690;28;20041;-67
2021/08/12 09:56:10;;;;;;;5.75;3.08;;;22.90;93.20;;;;;;5027222;28;20033;-67
2021/08/12 09:58:37;;;;;;;5.78;3.00;;;22.60;92.30;;;;;;5026818;28;20574;-68
2021/08/12 10:01:15;;;;;;;3.28;2.20;;;22.70;93.30;;;;;;5009188;28;20461;-67
2021/08/12 10:03:41;;;;;;;5.45;3.05;;;22.90;90.20;;;;;;5009283;28;20072;-68
2021/08/12 10:06:21;;;;;;;5.40;2.83;;;23.10;89.60;;;;;;5026092;28;20604;-67
2021/08/12 10:08:47;;;;;;;5.13;2.70;;;23.00;89.90;;;;;;5026985;28;20409;-68
2021/08/12 10:11:16;;;;;;;4.68;2.85;;;22.80;88.40;;;;;;5026348;28;20041;-67
2021/08/12 10:13:42;;;;;;;5.55;2.83;;;22.70;89.40;;;;;;5026933;28;20548;-67
2021/08/12 10:16:08;;;;;;;4.82;2.75;;;22.80;88.60;;;;;;5025592;28;20042;-67
2021/08/12 10:18:37;;;;;;;5.85;3.72;;;23.00;90.30;;;;;;5025730;28;20592;-67
2021/08/12 10:21:03;;;;;;;5.68;3.17;;;23.30;90.20;;;;;;5016929;28;20038;-67
2021/08/12 10:23:31;;;;;;;5.50;2.47;;;23.50;91.00;;;;;;5019547;28;20136;-70
2021/08/12 10:26:01;;;;;;;5.25;2.65;;;23.60;83.90;;;;;;5023092;28;20136;-64
2021/08/12 10:28:28;;;;;;;5.07;2.78;;;23.70;85.10;;;;;;5014954;28;20073;-65
2021/08/12 10:30:55;;;;;;;6.10;2.75;;;23.70;84.00;;;;;;5021392;28;20034;-65
2021/08/12 10:33:22;;;;;;;4.22;2.35;;;23.50;84.00;;;;;;5024631;28;20513;-65
2021/08/12 10:35:49;;;;;;;2.90;2.15;;;23.60;84.80;;;;;;5021371;28;20033;-65
2021/08/12 10:38:14;;;;;;;4.82;2.70;;;23.70;83.60;;;;;;5008729;28;20037;-66
2021/08/12 10:40:43;;;;;;;3.67;2.42;;;23.80;85.20;;;;;;5025623;28;20491;-65
2021/08/12 10:43:12;;;;;;;6.97;2.80;;;23.90;88.70;;;;;;5025204;28;20060;-64
2021/08/12 10:45:38;;;;;;;5.60;2.60;;;23.90;89.90;;;;;;5025272;28;20033;-65
2021/08/12 10:48:04;;;;;;;4.80;2.78;;;23.90;89.40;;;;;;5026109;28;20056;-64
2021/08/12 10:50:35;;;;;;;7.63;2.90;;;24.00;87.00;;;;;;5025379;28;20041;-65
2021/08/12 10:53:04;;;;;;;7.15;2.63;;;23.90;86.90;;;;;;5025779;28;20046;-65
2021/08/12 10:55:31;;;;;;;3.80;2.33;;;23.90;88.00;;;;;;5026019;28;20065;-65
2021/08/12 10:58:18;;;;;;;6.75;3.13;;;24.00;88.40;;;;;;5026323;28;20539;-65
2021/08/12 11:00:48;;;;;;;11.23;3.55;;;24.20;88.60;;;;;;5025175;28;20038;-64
2021/08/12 11:03:14;;;;;;;6.57;3.00;;;24.40;91.20;;;;;;5025673;28;20227;-65
2021/08/12 11:06:03;;;;;;;6.95;2.83;;;24.50;90.70;;;;;;5024682;28;20052;-65
2021/08/12 11:11:28;;;;;;;6.28;3.53;;;24.30;86.40;;;;;;5025965;28;20087;-65
2021/08/12 11:14:05;;;;;;;3.97;3.00;;;24.40;90.20;;;;;;5025496;28;20042;-66
2021/08/12 11:16:55;;;;;;;5.68;2.88;;;24.50;90.60;;;;;;5027148;28;20489;-66
2021/08/12 11:19:23;;;;;;;7.03;2.97;;;24.60;86.10;;;;;;5015505;28;20056;-66
2021/08/12 11:21:50;;;;;;;3.53;2.63;;;24.60;85.10;;;;;;5026840;28;20069;-66
2021/08/12 11:24:24;;;;;;;4.55;2.78;;;24.40;81.10;;;;;;5026541;28;20043;-66
2021/08/12 11:26:53;;;;;;;3.72;2.30;;;24.40;84.50;;;;;;5026558;28;20068;-66
2021/08/12 11:29:31;;;;;;;6.40;2.80;;;24.40;82.50;;;;;;5008946;28;20041;-66
2021/08/12 11:32:02;;;;;;;3.53;2.55;;;24.40;83.90;;;;;;5025643;28;20057;-66
2021/08/12 11:34:34;;;;;;;5.25;3.20;;;24.40;83.70;;;;;;5026441;28;20037;-66
2021/08/12 11:37:04;;;;;;;4.78;3.70;;;24.40;83.30;;;;;;5025893;28;20099;-66
2021/08/12 11:39:30;;;;;;;7.15;3.13;;;24.50;84.40;;;;;;5025635;28;20095;-66
2021/08/12 11:41:56;;;;;;;7.28;2.45;;;24.50;84.30;;;;;;5025819;28;20045;-66
2021/08/12 11:44:22;;;;;;;6.00;2.40;;;24.50;86.00;;;;;;5025587;28;20041;-65
2021/08/12 11:46:48;;;;;;;4.60;2.80;;;24.40;84.70;;;;;;5006878;28;20041;-66
2021/08/12 11:49:17;;;;;;;4.07;2.03;;;24.50;87.20;;;;;;5025704;28;20050;-65
2021/08/12 11:51:43;;;;;;;3.85;2.40;;;24.50;90.20;;;;;;5025199;28;20038;-65
2021/08/12 11:54:10;;;;;;;5.43;2.40;;;24.50;90.10;;;;;;5025316;28;20041;-65
2021/08/12 11:56:37;;;;;;;4.32;2.80;;;24.50;87.30;;;;;;5024951;28;20405;-63
2021/08/12 11:59:03;;;;;;;4.35;2.60;;;24.40;89.10;;;;;;5024874;28;20104;-65
2021/08/12 12:01:34;;;;;;;6.63;3.08;;;24.40;88.20;;;;;;5024764;28;20087;-64
2021/08/12 12:04:08;;;;;;;6.60;2.63;;;24.30;86.00;;;;;;5024974;28;20131;-67
2021/08/12 12:06:44;;;;;;;5.38;3.42;;;24.30;83.10;;;;;;5025388;28;20081;-66
2021/08/12 12:09:31;;;;;;;5.82;2.78;;;24.20;86.30;;;;;;5024961;28;20034;-67
2021/08/12 12:12:02;;;;;;;4.15;2.70;;;24.10;89.30;;;;;;5025556;28;20485;-67
2021/08/12 12:14:34;;;;;;;5.30;2.88;;;24.00;88.10;;;;;;5019644;28;20041;-66
2021/08/12 12:17:09;;;;;;;5.53;3.17;;;24.00;84.70;;;;;;5027655;28;20049;-67
2021/08/12 12:19:35;;;;;;;3.50;2.40;;;24.00;87.20;;;;;;5011213;28;20568;-66
2021/08/12 12:22:10;;;;;;;9.45;2.90;;;24.10;84.20;;;;;;5028755;28;20045;-66
2021/08/12 12:24:44;;;;;;;3.97;2.85;;;24.20;87.20;;;;;;5028155;28;20128;-67
2021/08/12 12:27:10;;;;;;;6.80;3.80;;;24.30;86.10;;;;;;5026906;28;20524;-66
2021/08/12 12:29:35;;;;;;;6.50;3.58;;;24.40;84.60;;;;;;5027870;28;20045;-67
2021/08/12 12:32:01;;;;;;;3.22;2.53;;;24.30;86.30;;;;;;5028718;28;20567;-67
2021/08/12 12:34:27;;;;;;;3.10;2.00;;;24.30;85.80;;;;;;5029501;28;20056;-65
2021/08/12 12:36:54;;;;;;;4.82;3.13;;;24.20;86.50;;;;;;5028934;28;20063;-66
2021/08/12 12:39:20;;;;;;;6.82;2.92;;;24.10;87.60;;;;;;5029124;28;20056;-67
2021/08/12 12:41:47;;;;;;;7.40;2.60;;;24.00;90.80;;;;;;5030067;28;20037;-67
2021/08/12 12:44:14;;;;;;;4.78;2.85;;;23.90;91.50;;;;;;5028038;28;20785;-66
2021/08/12 12:46:41;;;;;;;4.03;2.80;;;23.80;91.70;;;;;;5024383;28;20046;-66
2021/08/12 12:49:23;;;;;;;7.57;2.88;;;23.80;82.70;;;;;;5030648;28;20053;-65
2021/08/12 12:51:49;;;;;;;3.70;2.40;;;23.80;81.90;;;;;;5030611;28;20112;-65
2021/08/12 12:54:14;;;;;;;3.30;2.33;;;23.80;91.30;;;;;;5031139;28;20158;-66
2021/08/12 12:56:42;;;;;;;6.82;2.53;;;23.80;89.80;;;;;;5029103;28;20548;-66
2021/08/12 12:59:13;;;;;;;3.25;2.08;;;23.80;90.00;;;;;;5031240;28;20084;-67
2021/08/12 13:01:39;;;;;;;2.95;2.30;;;23.70;89.10;;;;;;5028076;28;20048;-67
2021/08/12 13:04:05;;;;;;;9.52;2.45;;;23.70;88.10;;;;;;5028952;28;20037;-67
2021/08/12 13:06:42;;;;;;;7.55;2.45;;;23.60;90.50;;;;;;5027624;28;20814;-67